<?xml version="1.0" encoding="UTF-8"?>
<gpx xmlns="http://www.topografix.com/GPX/1/1" xmlns:xsi="http://www.w3.org/2001/XMLSchema-instance" version="1.1" xsi:schemaLocation="http://www.topografix.com/GPX/1/1 http://www.topografix.com/GPX/1/1/gpx.xsd">
  <metadata>
    <name>Conchman Triathlon</name>
  </metadata>
  <trk>
    <name>Conchman Triathlon</name>
    <trkseg>
      <trkpt lat="26.520705" lon="-78.619494">
        <ele>5.650088</ele>
        <time>2024-11-02T08:15:00.000Z</time>
      </trkpt>
      <trkpt lat="26.521012" lon="-78.619761">
        <ele>5.650084</ele>
        <time>2024-11-02T08:15:04.000Z</time>
      </trkpt>
      <trkpt lat="26.521174" lon="-78.619999">
        <ele>5.650083</ele>
        <time>2024-11-02T08:15:07.000Z</time>
      </trkpt>
      <trkpt lat="26.52141" lon="-78.620209">
        <ele>5.684139</ele>
        <time>2024-11-02T08:15:10.000Z</time>
      </trkpt>
      <trkpt lat="26.521502" lon="-78.620328">
        <ele>5.762563</ele>
        <time>2024-11-02T08:15:12.000Z</time>
      </trkpt>
      <trkpt lat="26.52103" lon="-78.620945">
        <ele>6.185165</ele>
        <time>2024-11-02T08:15:20.000Z</time>
      </trkpt>
      <trkpt lat="26.520733" lon="-78.621432">
        <ele>6.486951</ele>
        <time>2024-11-02T08:15:26.000Z</time>
      </trkpt>
      <trkpt lat="26.520487" lon="-78.62194">
        <ele>6.653855</ele>
        <time>2024-11-02T08:15:32.000Z</time>
      </trkpt>
      <trkpt lat="26.520443" lon="-78.6221">
        <ele>6.613538</ele>
        <time>2024-11-02T08:15:34.000Z</time>
      </trkpt>
      <trkpt lat="26.520092" lon="-78.622766">
        <ele>6.430665</ele>
        <time>2024-11-02T08:15:42.000Z</time>
      </trkpt>
      <trkpt lat="26.520064" lon="-78.622849">
        <ele>6.409229</ele>
        <time>2024-11-02T08:15:43.000Z</time>
      </trkpt>
      <trkpt lat="26.519873" lon="-78.62324">
        <ele>6.304916</ele>
        <time>2024-11-02T08:15:47.000Z</time>
      </trkpt>
      <trkpt lat="26.519812" lon="-78.623661">
        <ele>6.173525</ele>
        <time>2024-11-02T08:15:51.000Z</time>
      </trkpt>
      <trkpt lat="26.519823" lon="-78.623814">
        <ele>6.060734</ele>
        <time>2024-11-02T08:15:53.000Z</time>
      </trkpt>
      <trkpt lat="26.519952" lon="-78.624273">
        <ele>5.697729</ele>
        <time>2024-11-02T08:15:58.000Z</time>
      </trkpt>
      <trkpt lat="26.520018" lon="-78.624425">
        <ele>5.56158</ele>
        <time>2024-11-02T08:16:00.000Z</time>
      </trkpt>
      <trkpt lat="26.520194" lon="-78.624886">
        <ele>5.19082</ele>
        <time>2024-11-02T08:16:05.000Z</time>
      </trkpt>
      <trkpt lat="26.520302" lon="-78.624824">
        <ele>5.098784</ele>
        <time>2024-11-02T08:16:06.000Z</time>
      </trkpt>
      <trkpt lat="26.520532" lon="-78.625416">
        <ele>4.709156</ele>
        <time>2024-11-02T08:16:12.000Z</time>
      </trkpt>
      <trkpt lat="26.52079" lon="-78.626064">
        <ele>4.7246</ele>
        <time>2024-11-02T08:16:19.000Z</time>
      </trkpt>
      <trkpt lat="26.520981" lon="-78.626533">
        <ele>4.735911</ele>
        <time>2024-11-02T08:16:24.000Z</time>
      </trkpt>
      <trkpt lat="26.520871" lon="-78.626552">
        <ele>4.738573</ele>
        <time>2024-11-02T08:16:25.000Z</time>
      </trkpt>
      <trkpt lat="26.521193" lon="-78.627401">
        <ele>4.756151</ele>
        <time>2024-11-02T08:16:34.000Z</time>
      </trkpt>
      <trkpt lat="26.521383" lon="-78.627717">
        <ele>4.761505</ele>
        <time>2024-11-02T08:16:38.000Z</time>
      </trkpt>
      <trkpt lat="26.521667" lon="-78.628054">
        <ele>4.768215</ele>
        <time>2024-11-02T08:16:43.000Z</time>
      </trkpt>
      <trkpt lat="26.521761" lon="-78.628149">
        <ele>4.770444</ele>
        <time>2024-11-02T08:16:44.000Z</time>
      </trkpt>
      <trkpt lat="26.521988" lon="-78.628375">
        <ele>4.775096</ele>
        <time>2024-11-02T08:16:47.000Z</time>
      </trkpt>
      <trkpt lat="26.52204" lon="-78.628421">
        <ele>4.77624</ele>
        <time>2024-11-02T08:16:48.000Z</time>
      </trkpt>
      <trkpt lat="26.522127" lon="-78.628502">
        <ele>4.77834</ele>
        <time>2024-11-02T08:16:49.000Z</time>
      </trkpt>
      <trkpt lat="26.522201" lon="-78.628414">
        <ele>4.777054</ele>
        <time>2024-11-02T08:16:50.000Z</time>
      </trkpt>
      <trkpt lat="26.522354" lon="-78.628184">
        <ele>4.747053</ele>
        <time>2024-11-02T08:16:53.000Z</time>
      </trkpt>
      <trkpt lat="26.522878" lon="-78.627652">
        <ele>4.664775</ele>
        <time>2024-11-02T08:17:01.000Z</time>
      </trkpt>
      <trkpt lat="26.523246" lon="-78.627376">
        <ele>4.613431</ele>
        <time>2024-11-02T08:17:06.000Z</time>
      </trkpt>
      <trkpt lat="26.523556" lon="-78.62715">
        <ele>4.571381</ele>
        <time>2024-11-02T08:17:10.000Z</time>
      </trkpt>
      <trkpt lat="26.524003" lon="-78.626816">
        <ele>4.518998</ele>
        <time>2024-11-02T08:17:16.000Z</time>
      </trkpt>
      <trkpt lat="26.524341" lon="-78.626565">
        <ele>4.479617</ele>
        <time>2024-11-02T08:17:21.000Z</time>
      </trkpt>
      <trkpt lat="26.524616" lon="-78.626279">
        <ele>4.442274</ele>
        <time>2024-11-02T08:17:25.000Z</time>
      </trkpt>
      <trkpt lat="26.524723" lon="-78.62618">
        <ele>4.429092</ele>
        <time>2024-11-02T08:17:27.000Z</time>
      </trkpt>
      <trkpt lat="26.524795" lon="-78.626093">
        <ele>4.419107</ele>
        <time>2024-11-02T08:17:28.000Z</time>
      </trkpt>
      <trkpt lat="26.525285" lon="-78.625527">
        <ele>4.273181</ele>
        <time>2024-11-02T08:17:36.000Z</time>
      </trkpt>
      <trkpt lat="26.526262" lon="-78.624214">
        <ele>3.955665</ele>
        <time>2024-11-02T08:17:53.000Z</time>
      </trkpt>
      <trkpt lat="26.527035" lon="-78.623162">
        <ele>4.158995</ele>
        <time>2024-11-02T08:18:07.000Z</time>
      </trkpt>
      <trkpt lat="26.527667" lon="-78.622315">
        <ele>4.419116</ele>
        <time>2024-11-02T08:18:18.000Z</time>
      </trkpt>
      <trkpt lat="26.528283" lon="-78.621525">
        <ele>4.722505</ele>
        <time>2024-11-02T08:18:28.000Z</time>
      </trkpt>
      <trkpt lat="26.529152" lon="-78.620331">
        <ele>4.795105</ele>
        <time>2024-11-02T08:18:43.000Z</time>
      </trkpt>
      <trkpt lat="26.529944" lon="-78.619165">
        <ele>4.734939</ele>
        <time>2024-11-02T08:18:58.000Z</time>
      </trkpt>
      <trkpt lat="26.530304" lon="-78.618621">
        <ele>4.68361</ele>
        <time>2024-11-02T08:19:05.000Z</time>
      </trkpt>
      <trkpt lat="26.530852" lon="-78.617707">
        <ele>4.720857</ele>
        <time>2024-11-02T08:19:16.000Z</time>
      </trkpt>
      <trkpt lat="26.531155" lon="-78.617123">
        <ele>4.846292</ele>
        <time>2024-11-02T08:19:23.000Z</time>
      </trkpt>
      <trkpt lat="26.531436" lon="-78.616563">
        <ele>4.963747</ele>
        <time>2024-11-02T08:19:29.000Z</time>
      </trkpt>
      <trkpt lat="26.532055" lon="-78.615158">
        <ele>4.859357</ele>
        <time>2024-11-02T08:19:45.000Z</time>
      </trkpt>
      <trkpt lat="26.532527" lon="-78.614021">
        <ele>4.65625</ele>
        <time>2024-11-02T08:19:57.000Z</time>
      </trkpt>
      <trkpt lat="26.533273" lon="-78.612241">
        <ele>4.173555</ele>
        <time>2024-11-02T08:20:17.000Z</time>
      </trkpt>
      <trkpt lat="26.533892" lon="-78.610708">
        <ele>3.755469</ele>
        <time>2024-11-02T08:20:34.000Z</time>
      </trkpt>
      <trkpt lat="26.534405" lon="-78.609323">
        <ele>3.851811</ele>
        <time>2024-11-02T08:20:49.000Z</time>
      </trkpt>
      <trkpt lat="26.534972" lon="-78.607556">
        <ele>4.284667</ele>
        <time>2024-11-02T08:21:08.000Z</time>
      </trkpt>
      <trkpt lat="26.535415" lon="-78.606155">
        <ele>4.314669</ele>
        <time>2024-11-02T08:21:23.000Z</time>
      </trkpt>
      <trkpt lat="26.535638" lon="-78.60562">
        <ele>4.268684</ele>
        <time>2024-11-02T08:21:29.000Z</time>
      </trkpt>
      <trkpt lat="26.535851" lon="-78.605293">
        <ele>4.248764</ele>
        <time>2024-11-02T08:21:33.000Z</time>
      </trkpt>
      <trkpt lat="26.536062" lon="-78.604985">
        <ele>4.326981</ele>
        <time>2024-11-02T08:21:37.000Z</time>
      </trkpt>
      <trkpt lat="26.53802" lon="-78.60268">
        <ele>4.907574</ele>
        <time>2024-11-02T08:22:09.000Z</time>
      </trkpt>
      <trkpt lat="26.540143" lon="-78.600154">
        <ele>4.80674</ele>
        <time>2024-11-02T08:22:43.000Z</time>
      </trkpt>
      <trkpt lat="26.540972" lon="-78.599173">
        <ele>5.221228</ele>
        <time>2024-11-02T08:22:56.000Z</time>
      </trkpt>
      <trkpt lat="26.541696" lon="-78.598288">
        <ele>5.946558</ele>
        <time>2024-11-02T08:23:08.000Z</time>
      </trkpt>
      <trkpt lat="26.542372" lon="-78.597477">
        <ele>6.213651</ele>
        <time>2024-11-02T08:23:19.000Z</time>
      </trkpt>
      <trkpt lat="26.543188" lon="-78.59649">
        <ele>6.222828</ele>
        <time>2024-11-02T08:23:32.000Z</time>
      </trkpt>
      <trkpt lat="26.543555" lon="-78.596015">
        <ele>6.185134</ele>
        <time>2024-11-02T08:23:38.000Z</time>
      </trkpt>
      <trkpt lat="26.543887" lon="-78.595494">
        <ele>6.146201</ele>
        <time>2024-11-02T08:23:44.000Z</time>
      </trkpt>
      <trkpt lat="26.544423" lon="-78.594338">
        <ele>6.116514</ele>
        <time>2024-11-02T08:23:57.000Z</time>
      </trkpt>
      <trkpt lat="26.545454" lon="-78.591931">
        <ele>5.956849</ele>
        <time>2024-11-02T08:24:24.000Z</time>
      </trkpt>
      <trkpt lat="26.546814" lon="-78.588825">
        <ele>4.68194</ele>
        <time>2024-11-02T08:24:58.000Z</time>
      </trkpt>
      <trkpt lat="26.547072" lon="-78.588259">
        <ele>4.459565</ele>
        <time>2024-11-02T08:25:04.000Z</time>
      </trkpt>
      <trkpt lat="26.547328" lon="-78.587671">
        <ele>4.235216</ele>
        <time>2024-11-02T08:25:11.000Z</time>
      </trkpt>
      <trkpt lat="26.547719" lon="-78.586721">
        <ele>4.307061</ele>
        <time>2024-11-02T08:25:21.000Z</time>
      </trkpt>
      <trkpt lat="26.548036" lon="-78.585733">
        <ele>4.409224</ele>
        <time>2024-11-02T08:25:31.000Z</time>
      </trkpt>
      <trkpt lat="26.548472" lon="-78.584442">
        <ele>4.707895</ele>
        <time>2024-11-02T08:25:45.000Z</time>
      </trkpt>
      <trkpt lat="26.548515" lon="-78.584326">
        <ele>4.737544</ele>
        <time>2024-11-02T08:25:46.000Z</time>
      </trkpt>
      <trkpt lat="26.549298" lon="-78.58181">
        <ele>4.349907</ele>
        <time>2024-11-02T08:26:12.000Z</time>
      </trkpt>
      <trkpt lat="26.549384" lon="-78.58146">
        <ele>4.355105</ele>
        <time>2024-11-02T08:26:16.000Z</time>
      </trkpt>
      <trkpt lat="26.54948" lon="-78.581029">
        <ele>4.361352</ele>
        <time>2024-11-02T08:26:20.000Z</time>
      </trkpt>
      <trkpt lat="26.549555" lon="-78.580529">
        <ele>4.368665</ele>
        <time>2024-11-02T08:26:25.000Z</time>
      </trkpt>
      <trkpt lat="26.549607" lon="-78.579997">
        <ele>4.384014</ele>
        <time>2024-11-02T08:26:30.000Z</time>
      </trkpt>
      <trkpt lat="26.549654" lon="-78.578874">
        <ele>4.877649</ele>
        <time>2024-11-02T08:26:41.000Z</time>
      </trkpt>
      <trkpt lat="26.549655" lon="-78.577942">
        <ele>5.2767</ele>
        <time>2024-11-02T08:26:50.000Z</time>
      </trkpt>
      <trkpt lat="26.549639" lon="-78.576307">
        <ele>5.672793</ele>
        <time>2024-11-02T08:27:06.000Z</time>
      </trkpt>
      <trkpt lat="26.549686" lon="-78.575522">
        <ele>5.920091</ele>
        <time>2024-11-02T08:27:14.000Z</time>
      </trkpt>
      <trkpt lat="26.549772" lon="-78.574839">
        <ele>6.172908</ele>
        <time>2024-11-02T08:27:21.000Z</time>
      </trkpt>
      <trkpt lat="26.549907" lon="-78.574179">
        <ele>6.420078</ele>
        <time>2024-11-02T08:27:28.000Z</time>
      </trkpt>
      <trkpt lat="26.550079" lon="-78.573616">
        <ele>6.585655</ele>
        <time>2024-11-02T08:27:34.000Z</time>
      </trkpt>
      <trkpt lat="26.550265" lon="-78.573058">
        <ele>6.728185</ele>
        <time>2024-11-02T08:27:40.000Z</time>
      </trkpt>
      <trkpt lat="26.550407" lon="-78.572713">
        <ele>6.819158</ele>
        <time>2024-11-02T08:27:44.000Z</time>
      </trkpt>
      <trkpt lat="26.550869" lon="-78.571778">
        <ele>6.878475</ele>
        <time>2024-11-02T08:27:55.000Z</time>
      </trkpt>
      <trkpt lat="26.550916" lon="-78.571673">
        <ele>6.85677</ele>
        <time>2024-11-02T08:27:56.000Z</time>
      </trkpt>
      <trkpt lat="26.551009" lon="-78.571527">
        <ele>6.818469</ele>
        <time>2024-11-02T08:27:58.000Z</time>
      </trkpt>
      <trkpt lat="26.551466" lon="-78.570844">
        <ele>6.649568</ele>
        <time>2024-11-02T08:28:06.000Z</time>
      </trkpt>
      <trkpt lat="26.551549" lon="-78.57076">
        <ele>6.624783</ele>
        <time>2024-11-02T08:28:07.000Z</time>
      </trkpt>
      <trkpt lat="26.552058" lon="-78.570002">
        <ele>6.425592</ele>
        <time>2024-11-02T08:28:16.000Z</time>
      </trkpt>
      <trkpt lat="26.552489" lon="-78.569672">
        <ele>6.304742</ele>
        <time>2024-11-02T08:28:22.000Z</time>
      </trkpt>
      <trkpt lat="26.552667" lon="-78.569609">
        <ele>6.260145</ele>
        <time>2024-11-02T08:28:24.000Z</time>
      </trkpt>
      <trkpt lat="26.553077" lon="-78.569494">
        <ele>6.160365</ele>
        <time>2024-11-02T08:28:29.000Z</time>
      </trkpt>
      <trkpt lat="26.553324" lon="-78.569451">
        <ele>6.075794</ele>
        <time>2024-11-02T08:28:32.000Z</time>
      </trkpt>
      <trkpt lat="26.553662" lon="-78.569426">
        <ele>5.942001</ele>
        <time>2024-11-02T08:28:36.000Z</time>
      </trkpt>
      <trkpt lat="26.553895" lon="-78.569448">
        <ele>5.854442</ele>
        <time>2024-11-02T08:28:39.000Z</time>
      </trkpt>
      <trkpt lat="26.554489" lon="-78.569684">
        <ele>5.615276</ele>
        <time>2024-11-02T08:28:46.000Z</time>
      </trkpt>
      <trkpt lat="26.555793" lon="-78.57024">
        <ele>5.359744</ele>
        <time>2024-11-02T08:29:02.000Z</time>
      </trkpt>
      <trkpt lat="26.55625" lon="-78.570407">
        <ele>5.311397</ele>
        <time>2024-11-02T08:29:07.000Z</time>
      </trkpt>
      <trkpt lat="26.556852" lon="-78.57056">
        <ele>5.319654</ele>
        <time>2024-11-02T08:29:14.000Z</time>
      </trkpt>
      <trkpt lat="26.557645" lon="-78.570662">
        <ele>5.448483</ele>
        <time>2024-11-02T08:29:23.000Z</time>
      </trkpt>
      <trkpt lat="26.559869" lon="-78.570875">
        <ele>5.541445</ele>
        <time>2024-11-02T08:29:48.000Z</time>
      </trkpt>
      <trkpt lat="26.562296" lon="-78.571116">
        <ele>5.809972</ele>
        <time>2024-11-02T08:30:15.000Z</time>
      </trkpt>
      <trkpt lat="26.56288" lon="-78.571302">
        <ele>6.012257</ele>
        <time>2024-11-02T08:30:22.000Z</time>
      </trkpt>
      <trkpt lat="26.563322" lon="-78.571483">
        <ele>6.173331</ele>
        <time>2024-11-02T08:30:27.000Z</time>
      </trkpt>
      <trkpt lat="26.56367" lon="-78.571684">
        <ele>6.297357</ele>
        <time>2024-11-02T08:30:31.000Z</time>
      </trkpt>
      <trkpt lat="26.564287" lon="-78.572129">
        <ele>6.370428</ele>
        <time>2024-11-02T08:30:39.000Z</time>
      </trkpt>
      <trkpt lat="26.564814" lon="-78.572593">
        <ele>6.43706</ele>
        <time>2024-11-02T08:30:46.000Z</time>
      </trkpt>
      <trkpt lat="26.566534" lon="-78.574089">
        <ele>6.067369</ele>
        <time>2024-11-02T08:31:10.000Z</time>
      </trkpt>
      <trkpt lat="26.567001" lon="-78.574652">
        <ele>6.217364</ele>
        <time>2024-11-02T08:31:18.000Z</time>
      </trkpt>
      <trkpt lat="26.567294" lon="-78.57519">
        <ele>6.341559</ele>
        <time>2024-11-02T08:31:24.000Z</time>
      </trkpt>
      <trkpt lat="26.567809" lon="-78.576735">
        <ele>6.749453</ele>
        <time>2024-11-02T08:31:40.000Z</time>
      </trkpt>
      <trkpt lat="26.567852" lon="-78.576836">
        <ele>6.777312</ele>
        <time>2024-11-02T08:31:41.000Z</time>
      </trkpt>
      <trkpt lat="26.567885" lon="-78.576953">
        <ele>6.808336</ele>
        <time>2024-11-02T08:31:42.000Z</time>
      </trkpt>
      <trkpt lat="26.568099" lon="-78.577662">
        <ele>7.012359</ele>
        <time>2024-11-02T08:31:49.000Z</time>
      </trkpt>
      <trkpt lat="26.568394" lon="-78.578586">
        <ele>6.920907</ele>
        <time>2024-11-02T08:31:59.000Z</time>
      </trkpt>
      <trkpt lat="26.568528" lon="-78.579044">
        <ele>6.87646</ele>
        <time>2024-11-02T08:32:04.000Z</time>
      </trkpt>
      <trkpt lat="26.568545" lon="-78.579297">
        <ele>6.852978</ele>
        <time>2024-11-02T08:32:07.000Z</time>
      </trkpt>
      <trkpt lat="26.568489" lon="-78.580333">
        <ele>6.889259</ele>
        <time>2024-11-02T08:32:17.000Z</time>
      </trkpt>
      <trkpt lat="26.568472" lon="-78.58047">
        <ele>6.899332</ele>
        <time>2024-11-02T08:32:18.000Z</time>
      </trkpt>
      <trkpt lat="26.568488" lon="-78.580586">
        <ele>6.909385</ele>
        <time>2024-11-02T08:32:19.000Z</time>
      </trkpt>
      <trkpt lat="26.568593" lon="-78.580744">
        <ele>6.925653</ele>
        <time>2024-11-02T08:32:21.000Z</time>
      </trkpt>
      <trkpt lat="26.568701" lon="-78.580805">
        <ele>6.935677</ele>
        <time>2024-11-02T08:32:22.000Z</time>
      </trkpt>
      <trkpt lat="26.568836" lon="-78.58081">
        <ele>6.948133</ele>
        <time>2024-11-02T08:32:24.000Z</time>
      </trkpt>
      <trkpt lat="26.569004" lon="-78.580714">
        <ele>6.96579</ele>
        <time>2024-11-02T08:32:26.000Z</time>
      </trkpt>
      <trkpt lat="26.569363" lon="-78.580653">
        <ele>6.955709</ele>
        <time>2024-11-02T08:32:30.000Z</time>
      </trkpt>
      <trkpt lat="26.569541" lon="-78.580681">
        <ele>6.893754</ele>
        <time>2024-11-02T08:32:32.000Z</time>
      </trkpt>
      <trkpt lat="26.570286" lon="-78.580815">
        <ele>6.623008</ele>
        <time>2024-11-02T08:32:40.000Z</time>
      </trkpt>
      <trkpt lat="26.571042" lon="-78.580987">
        <ele>6.350648</ele>
        <time>2024-11-02T08:32:49.000Z</time>
      </trkpt>
      <trkpt lat="26.572642" lon="-78.58133">
        <ele>4.506196</ele>
        <time>2024-11-02T08:33:07.000Z</time>
      </trkpt>
      <trkpt lat="26.573265" lon="-78.581464">
        <ele>4.039323</ele>
        <time>2024-11-02T08:33:14.000Z</time>
      </trkpt>
      <trkpt lat="26.573787" lon="-78.581538">
        <ele>3.744663</ele>
        <time>2024-11-02T08:33:20.000Z</time>
      </trkpt>
      <trkpt lat="26.574097" lon="-78.581556">
        <ele>3.559517</ele>
        <time>2024-11-02T08:33:23.000Z</time>
      </trkpt>
      <trkpt lat="26.574449" lon="-78.581515">
        <ele>3.362523</ele>
        <time>2024-11-02T08:33:27.000Z</time>
      </trkpt>
      <trkpt lat="26.57483" lon="-78.581427">
        <ele>3.23307</ele>
        <time>2024-11-02T08:33:31.000Z</time>
      </trkpt>
      <trkpt lat="26.575211" lon="-78.58126">
        <ele>3.150208</ele>
        <time>2024-11-02T08:33:36.000Z</time>
      </trkpt>
      <trkpt lat="26.575507" lon="-78.581058">
        <ele>3.082495</ele>
        <time>2024-11-02T08:33:40.000Z</time>
      </trkpt>
      <trkpt lat="26.575918" lon="-78.580613">
        <ele>2.964039</ele>
        <time>2024-11-02T08:33:46.000Z</time>
      </trkpt>
      <trkpt lat="26.576358" lon="-78.58013">
        <ele>2.905909</ele>
        <time>2024-11-02T08:33:53.000Z</time>
      </trkpt>
      <trkpt lat="26.576693" lon="-78.579753">
        <ele>2.88976</ele>
        <time>2024-11-02T08:33:58.000Z</time>
      </trkpt>
      <trkpt lat="26.577604" lon="-78.578249">
        <ele>2.93397</ele>
        <time>2024-11-02T08:34:16.000Z</time>
      </trkpt>
      <trkpt lat="26.578368" lon="-78.576973">
        <ele>3.070641</ele>
        <time>2024-11-02T08:34:31.000Z</time>
      </trkpt>
      <trkpt lat="26.579098" lon="-78.575773">
        <ele>3.154958</ele>
        <time>2024-11-02T08:34:45.000Z</time>
      </trkpt>
      <trkpt lat="26.581087" lon="-78.572477">
        <ele>2.993597</ele>
        <time>2024-11-02T08:35:25.000Z</time>
      </trkpt>
      <trkpt lat="26.581833" lon="-78.571254">
        <ele>2.932649</ele>
        <time>2024-11-02T08:35:40.000Z</time>
      </trkpt>
      <trkpt lat="26.582438" lon="-78.570541">
        <ele>2.900387</ele>
        <time>2024-11-02T08:35:50.000Z</time>
      </trkpt>
      <trkpt lat="26.582926" lon="-78.570207">
        <ele>2.900229</ele>
        <time>2024-11-02T08:35:56.000Z</time>
      </trkpt>
      <trkpt lat="26.583426" lon="-78.569897">
        <ele>2.900095</ele>
        <time>2024-11-02T08:36:02.000Z</time>
      </trkpt>
      <trkpt lat="26.583562" lon="-78.569846">
        <ele>2.90006</ele>
        <time>2024-11-02T08:36:04.000Z</time>
      </trkpt>
      <trkpt lat="26.583635" lon="-78.569768">
        <ele>2.900021</ele>
        <time>2024-11-02T08:36:05.000Z</time>
      </trkpt>
      <trkpt lat="26.583685" lon="-78.569664">
        <ele>2.900007</ele>
        <time>2024-11-02T08:36:06.000Z</time>
      </trkpt>
      <trkpt lat="26.583712" lon="-78.569551">
        <ele>2.899969</ele>
        <time>2024-11-02T08:36:07.000Z</time>
      </trkpt>
      <trkpt lat="26.583711" lon="-78.569545">
        <ele>2.899965</ele>
        <time>2024-11-02T08:36:07.000Z</time>
      </trkpt>
      <trkpt lat="26.583694" lon="-78.569428">
        <ele>2.899296</ele>
        <time>2024-11-02T08:36:08.000Z</time>
      </trkpt>
      <trkpt lat="26.583633" lon="-78.569327">
        <ele>2.897461</ele>
        <time>2024-11-02T08:36:09.000Z</time>
      </trkpt>
      <trkpt lat="26.583568" lon="-78.569245">
        <ele>2.895547</ele>
        <time>2024-11-02T08:36:10.000Z</time>
      </trkpt>
      <trkpt lat="26.583467" lon="-78.569202">
        <ele>2.893643</ele>
        <time>2024-11-02T08:36:11.000Z</time>
      </trkpt>
      <trkpt lat="26.583347" lon="-78.56921">
        <ele>2.891772</ele>
        <time>2024-11-02T08:36:12.000Z</time>
      </trkpt>
      <trkpt lat="26.583249" lon="-78.569245">
        <ele>2.889929</ele>
        <time>2024-11-02T08:36:13.000Z</time>
      </trkpt>
      <trkpt lat="26.583172" lon="-78.569309">
        <ele>2.888059</ele>
        <time>2024-11-02T08:36:14.000Z</time>
      </trkpt>
      <trkpt lat="26.583105" lon="-78.5694">
        <ele>2.886189</ele>
        <time>2024-11-02T08:36:15.000Z</time>
      </trkpt>
      <trkpt lat="26.58308" lon="-78.569507">
        <ele>2.884549</ele>
        <time>2024-11-02T08:36:16.000Z</time>
      </trkpt>
      <trkpt lat="26.582912" lon="-78.569887">
        <ele>2.877876</ele>
        <time>2024-11-02T08:36:20.000Z</time>
      </trkpt>
      <trkpt lat="26.582439" lon="-78.570552">
        <ele>2.878666</ele>
        <time>2024-11-02T08:36:28.000Z</time>
      </trkpt>
      <trkpt lat="26.581819" lon="-78.571264">
        <ele>2.920363</ele>
        <time>2024-11-02T08:36:38.000Z</time>
      </trkpt>
      <trkpt lat="26.581088" lon="-78.572483">
        <ele>2.992303</ele>
        <time>2024-11-02T08:36:53.000Z</time>
      </trkpt>
      <trkpt lat="26.579096" lon="-78.575775">
        <ele>3.140942</ele>
        <time>2024-11-02T08:37:33.000Z</time>
      </trkpt>
      <trkpt lat="26.578373" lon="-78.576967">
        <ele>3.084007</ele>
        <time>2024-11-02T08:37:47.000Z</time>
      </trkpt>
      <trkpt lat="26.57761" lon="-78.578246">
        <ele>2.926404</ele>
        <time>2024-11-02T08:38:02.000Z</time>
      </trkpt>
      <trkpt lat="26.576684" lon="-78.579749">
        <ele>2.880305</ele>
        <time>2024-11-02T08:38:20.000Z</time>
      </trkpt>
      <trkpt lat="26.57637" lon="-78.580137">
        <ele>2.878652</ele>
        <time>2024-11-02T08:38:25.000Z</time>
      </trkpt>
      <trkpt lat="26.575913" lon="-78.580604">
        <ele>2.925662</ele>
        <time>2024-11-02T08:38:32.000Z</time>
      </trkpt>
      <trkpt lat="26.575636" lon="-78.58079">
        <ele>2.953112</ele>
        <time>2024-11-02T08:38:36.000Z</time>
      </trkpt>
      <trkpt lat="26.575442" lon="-78.580959">
        <ele>2.97356</ele>
        <time>2024-11-02T08:38:39.000Z</time>
      </trkpt>
      <trkpt lat="26.574811" lon="-78.581256">
        <ele>3.032914</ele>
        <time>2024-11-02T08:38:47.000Z</time>
      </trkpt>
      <trkpt lat="26.574559" lon="-78.581344">
        <ele>3.092372</ele>
        <time>2024-11-02T08:38:50.000Z</time>
      </trkpt>
      <trkpt lat="26.574137" lon="-78.581394">
        <ele>3.184654</ele>
        <time>2024-11-02T08:38:55.000Z</time>
      </trkpt>
      <trkpt lat="26.573794" lon="-78.581392">
        <ele>3.260145</ele>
        <time>2024-11-02T08:38:59.000Z</time>
      </trkpt>
      <trkpt lat="26.57329" lon="-78.581351">
        <ele>3.369091</ele>
        <time>2024-11-02T08:39:05.000Z</time>
      </trkpt>
      <trkpt lat="26.572662" lon="-78.581227">
        <ele>3.89588</ele>
        <time>2024-11-02T08:39:12.000Z</time>
      </trkpt>
      <trkpt lat="26.571316" lon="-78.580908">
        <ele>5.510679</ele>
        <time>2024-11-02T08:39:27.000Z</time>
      </trkpt>
      <trkpt lat="26.570311" lon="-78.580667">
        <ele>6.253204</ele>
        <time>2024-11-02T08:39:38.000Z</time>
      </trkpt>
      <trkpt lat="26.569565" lon="-78.580523">
        <ele>6.797413</ele>
        <time>2024-11-02T08:39:46.000Z</time>
      </trkpt>
      <trkpt lat="26.569383" lon="-78.580449">
        <ele>6.843719</ele>
        <time>2024-11-02T08:39:48.000Z</time>
      </trkpt>
      <trkpt lat="26.569054" lon="-78.580256">
        <ele>6.874772</ele>
        <time>2024-11-02T08:39:52.000Z</time>
      </trkpt>
      <trkpt lat="26.568931" lon="-78.580132">
        <ele>6.888247</ele>
        <time>2024-11-02T08:39:54.000Z</time>
      </trkpt>
      <trkpt lat="26.568703" lon="-78.579723">
        <ele>6.924188</ele>
        <time>2024-11-02T08:39:59.000Z</time>
      </trkpt>
      <trkpt lat="26.568531" lon="-78.579038">
        <ele>6.975962</ele>
        <time>2024-11-02T08:40:06.000Z</time>
      </trkpt>
      <trkpt lat="26.568385" lon="-78.578589">
        <ele>6.971896</ele>
        <time>2024-11-02T08:40:11.000Z</time>
      </trkpt>
      <trkpt lat="26.567878" lon="-78.576939">
        <ele>6.888077</ele>
        <time>2024-11-02T08:40:28.000Z</time>
      </trkpt>
      <trkpt lat="26.567846" lon="-78.576845">
        <ele>6.848837</ele>
        <time>2024-11-02T08:40:29.000Z</time>
      </trkpt>
      <trkpt lat="26.567809" lon="-78.576746">
        <ele>6.813598</ele>
        <time>2024-11-02T08:40:30.000Z</time>
      </trkpt>
      <trkpt lat="26.567308" lon="-78.575182">
        <ele>6.243279</ele>
        <time>2024-11-02T08:40:47.000Z</time>
      </trkpt>
      <trkpt lat="26.567003" lon="-78.574644">
        <ele>6.215321</ele>
        <time>2024-11-02T08:40:53.000Z</time>
      </trkpt>
      <trkpt lat="26.566523" lon="-78.574081">
        <ele>6.181566</ele>
        <time>2024-11-02T08:41:01.000Z</time>
      </trkpt>
      <trkpt lat="26.564799" lon="-78.572592">
        <ele>6.509231</ele>
        <time>2024-11-02T08:41:25.000Z</time>
      </trkpt>
      <trkpt lat="26.564279" lon="-78.572131">
        <ele>6.40579</ele>
        <time>2024-11-02T08:41:32.000Z</time>
      </trkpt>
      <trkpt lat="26.563678" lon="-78.571671">
        <ele>6.217689</ele>
        <time>2024-11-02T08:41:40.000Z</time>
      </trkpt>
      <trkpt lat="26.563338" lon="-78.571496">
        <ele>6.118232</ele>
        <time>2024-11-02T08:41:44.000Z</time>
      </trkpt>
      <trkpt lat="26.562892" lon="-78.571287">
        <ele>5.997136</ele>
        <time>2024-11-02T08:41:49.000Z</time>
      </trkpt>
      <trkpt lat="26.562296" lon="-78.571129">
        <ele>5.846717</ele>
        <time>2024-11-02T08:41:56.000Z</time>
      </trkpt>
      <trkpt lat="26.559867" lon="-78.570874">
        <ele>5.539081</ele>
        <time>2024-11-02T08:42:23.000Z</time>
      </trkpt>
      <trkpt lat="26.557646" lon="-78.570661">
        <ele>5.498772</ele>
        <time>2024-11-02T08:42:48.000Z</time>
      </trkpt>
      <trkpt lat="26.556845" lon="-78.570574">
        <ele>5.35557</ele>
        <time>2024-11-02T08:42:57.000Z</time>
      </trkpt>
      <trkpt lat="26.556249" lon="-78.5704">
        <ele>5.244748</ele>
        <time>2024-11-02T08:43:04.000Z</time>
      </trkpt>
      <trkpt lat="26.555784" lon="-78.570236">
        <ele>5.289969</ele>
        <time>2024-11-02T08:43:09.000Z</time>
      </trkpt>
      <trkpt lat="26.554494" lon="-78.569696">
        <ele>5.644398</ele>
        <time>2024-11-02T08:43:24.000Z</time>
      </trkpt>
      <trkpt lat="26.553899" lon="-78.569446">
        <ele>5.845635</ele>
        <time>2024-11-02T08:43:31.000Z</time>
      </trkpt>
      <trkpt lat="26.55334" lon="-78.569123">
        <ele>6.05651</ele>
        <time>2024-11-02T08:43:38.000Z</time>
      </trkpt>
      <trkpt lat="26.553128" lon="-78.568966">
        <ele>6.143184</ele>
        <time>2024-11-02T08:43:41.000Z</time>
      </trkpt>
      <trkpt lat="26.55287" lon="-78.568726">
        <ele>6.253196</ele>
        <time>2024-11-02T08:43:45.000Z</time>
      </trkpt>
      <trkpt lat="26.552739" lon="-78.568593">
        <ele>6.284358</ele>
        <time>2024-11-02T08:43:47.000Z</time>
      </trkpt>
      <trkpt lat="26.552598" lon="-78.568544">
        <ele>6.299982</ele>
        <time>2024-11-02T08:43:49.000Z</time>
      </trkpt>
      <trkpt lat="26.55247" lon="-78.568602">
        <ele>6.315478</ele>
        <time>2024-11-02T08:43:51.000Z</time>
      </trkpt>
      <trkpt lat="26.55242" lon="-78.568674">
        <ele>6.323341</ele>
        <time>2024-11-02T08:43:52.000Z</time>
      </trkpt>
      <trkpt lat="26.552388" lon="-78.568872">
        <ele>6.343293</ele>
        <time>2024-11-02T08:43:54.000Z</time>
      </trkpt>
      <trkpt lat="26.552301" lon="-78.569366">
        <ele>6.390374</ele>
        <time>2024-11-02T08:43:59.000Z</time>
      </trkpt>
      <trkpt lat="26.552053" lon="-78.570001">
        <ele>6.455738</ele>
        <time>2024-11-02T08:44:06.000Z</time>
      </trkpt>
      <trkpt lat="26.551546" lon="-78.570749">
        <ele>6.659576</ele>
        <time>2024-11-02T08:44:15.000Z</time>
      </trkpt>
      <trkpt lat="26.551474" lon="-78.570853">
        <ele>6.687239</ele>
        <time>2024-11-02T08:44:16.000Z</time>
      </trkpt>
      <trkpt lat="26.551012" lon="-78.571534">
        <ele>6.875855</ele>
        <time>2024-11-02T08:44:25.000Z</time>
      </trkpt>
      <trkpt lat="26.550912" lon="-78.571682">
        <ele>6.907128</ele>
        <time>2024-11-02T08:44:27.000Z</time>
      </trkpt>
      <trkpt lat="26.550869" lon="-78.571762">
        <ele>6.897016</ele>
        <time>2024-11-02T08:44:28.000Z</time>
      </trkpt>
      <trkpt lat="26.550395" lon="-78.572714">
        <ele>6.796895</ele>
        <time>2024-11-02T08:44:39.000Z</time>
      </trkpt>
      <trkpt lat="26.550281" lon="-78.573065">
        <ele>6.761931</ele>
        <time>2024-11-02T08:44:43.000Z</time>
      </trkpt>
      <trkpt lat="26.550079" lon="-78.573617">
        <ele>6.652004</ele>
        <time>2024-11-02T08:44:49.000Z</time>
      </trkpt>
      <trkpt lat="26.549905" lon="-78.574187">
        <ele>6.412248</ele>
        <time>2024-11-02T08:44:55.000Z</time>
      </trkpt>
      <trkpt lat="26.549777" lon="-78.574845">
        <ele>6.140681</ele>
        <time>2024-11-02T08:45:02.000Z</time>
      </trkpt>
      <trkpt lat="26.549692" lon="-78.575529">
        <ele>5.883449</ele>
        <time>2024-11-02T08:45:09.000Z</time>
      </trkpt>
      <trkpt lat="26.549651" lon="-78.576305">
        <ele>5.694285</ele>
        <time>2024-11-02T08:45:17.000Z</time>
      </trkpt>
      <trkpt lat="26.549654" lon="-78.577931">
        <ele>5.221839</ele>
        <time>2024-11-02T08:45:33.000Z</time>
      </trkpt>
      <trkpt lat="26.549653" lon="-78.578864">
        <ele>4.864261</ele>
        <time>2024-11-02T08:45:42.000Z</time>
      </trkpt>
      <trkpt lat="26.5496" lon="-78.579999">
        <ele>4.531162</ele>
        <time>2024-11-02T08:45:53.000Z</time>
      </trkpt>
      <trkpt lat="26.549558" lon="-78.580519">
        <ele>4.414415</ele>
        <time>2024-11-02T08:45:58.000Z</time>
      </trkpt>
      <trkpt lat="26.549483" lon="-78.581034">
        <ele>4.302117</ele>
        <time>2024-11-02T08:46:03.000Z</time>
      </trkpt>
      <trkpt lat="26.549387" lon="-78.581451">
        <ele>4.233995</ele>
        <time>2024-11-02T08:46:07.000Z</time>
      </trkpt>
      <trkpt lat="26.549287" lon="-78.581812">
        <ele>4.324175</ele>
        <time>2024-11-02T08:46:11.000Z</time>
      </trkpt>
      <trkpt lat="26.548515" lon="-78.584314">
        <ele>4.680762</ele>
        <time>2024-11-02T08:46:37.000Z</time>
      </trkpt>
      <trkpt lat="26.54848" lon="-78.584448">
        <ele>4.676072</ele>
        <time>2024-11-02T08:46:38.000Z</time>
      </trkpt>
      <trkpt lat="26.548035" lon="-78.585733">
        <ele>4.500825</ele>
        <time>2024-11-02T08:46:52.000Z</time>
      </trkpt>
      <trkpt lat="26.547718" lon="-78.586732">
        <ele>4.230108</ele>
        <time>2024-11-02T08:47:03.000Z</time>
      </trkpt>
      <trkpt lat="26.547326" lon="-78.587677">
        <ele>4.305814</ele>
        <time>2024-11-02T08:47:13.000Z</time>
      </trkpt>
      <trkpt lat="26.547065" lon="-78.588257">
        <ele>4.476506</ele>
        <time>2024-11-02T08:47:19.000Z</time>
      </trkpt>
      <trkpt lat="26.546825" lon="-78.588832">
        <ele>4.645695</ele>
        <time>2024-11-02T08:47:25.000Z</time>
      </trkpt>
      <trkpt lat="26.545449" lon="-78.591926">
        <ele>5.971802</ele>
        <time>2024-11-02T08:47:59.000Z</time>
      </trkpt>
      <trkpt lat="26.544405" lon="-78.594342">
        <ele>6.110698</ele>
        <time>2024-11-02T08:48:26.000Z</time>
      </trkpt>
      <trkpt lat="26.543882" lon="-78.595502">
        <ele>6.133977</ele>
        <time>2024-11-02T08:48:39.000Z</time>
      </trkpt>
      <trkpt lat="26.543558" lon="-78.596017">
        <ele>6.145488</ele>
        <time>2024-11-02T08:48:45.000Z</time>
      </trkpt>
      <trkpt lat="26.543187" lon="-78.596487">
        <ele>6.204689</ele>
        <time>2024-11-02T08:48:51.000Z</time>
      </trkpt>
      <trkpt lat="26.542366" lon="-78.597493">
        <ele>6.340362</ele>
        <time>2024-11-02T08:49:05.000Z</time>
      </trkpt>
      <trkpt lat="26.541699" lon="-78.598304">
        <ele>5.855202</ele>
        <time>2024-11-02T08:49:16.000Z</time>
      </trkpt>
      <trkpt lat="26.540974" lon="-78.599165">
        <ele>5.298191</ele>
        <time>2024-11-02T08:49:28.000Z</time>
      </trkpt>
      <trkpt lat="26.540146" lon="-78.600143">
        <ele>4.73507</ele>
        <time>2024-11-02T08:49:41.000Z</time>
      </trkpt>
      <trkpt lat="26.538019" lon="-78.602677">
        <ele>4.856278</ele>
        <time>2024-11-02T08:50:16.000Z</time>
      </trkpt>
      <trkpt lat="26.536065" lon="-78.604991">
        <ele>4.30319</ele>
        <time>2024-11-02T08:50:48.000Z</time>
      </trkpt>
      <trkpt lat="26.535846" lon="-78.605281">
        <ele>4.314779</ele>
        <time>2024-11-02T08:50:52.000Z</time>
      </trkpt>
      <trkpt lat="26.535638" lon="-78.60561">
        <ele>4.32692</ele>
        <time>2024-11-02T08:50:56.000Z</time>
      </trkpt>
      <trkpt lat="26.535408" lon="-78.606162">
        <ele>4.344841</ele>
        <time>2024-11-02T08:51:02.000Z</time>
      </trkpt>
      <trkpt lat="26.534973" lon="-78.607546">
        <ele>4.217656</ele>
        <time>2024-11-02T08:51:17.000Z</time>
      </trkpt>
      <trkpt lat="26.534402" lon="-78.609332">
        <ele>3.896344</ele>
        <time>2024-11-02T08:51:36.000Z</time>
      </trkpt>
      <trkpt lat="26.53389" lon="-78.610706">
        <ele>3.760392</ele>
        <time>2024-11-02T08:51:51.000Z</time>
      </trkpt>
      <trkpt lat="26.533263" lon="-78.612251">
        <ele>4.171347</ele>
        <time>2024-11-02T08:52:08.000Z</time>
      </trkpt>
      <trkpt lat="26.532524" lon="-78.614032">
        <ele>4.675735</ele>
        <time>2024-11-02T08:52:28.000Z</time>
      </trkpt>
      <trkpt lat="26.532069" lon="-78.615156">
        <ele>4.872005</ele>
        <time>2024-11-02T08:52:40.000Z</time>
      </trkpt>
      <trkpt lat="26.531431" lon="-78.616563">
        <ele>4.897061</ele>
        <time>2024-11-02T08:52:56.000Z</time>
      </trkpt>
      <trkpt lat="26.531168" lon="-78.617129">
        <ele>4.824092</ele>
        <time>2024-11-02T08:53:02.000Z</time>
      </trkpt>
      <trkpt lat="26.530857" lon="-78.617706">
        <ele>4.754506</ele>
        <time>2024-11-02T08:53:09.000Z</time>
      </trkpt>
      <trkpt lat="26.530294" lon="-78.618632">
        <ele>4.697439</ele>
        <time>2024-11-02T08:53:20.000Z</time>
      </trkpt>
      <trkpt lat="26.52996" lon="-78.619173">
        <ele>4.663107</ele>
        <time>2024-11-02T08:53:27.000Z</time>
      </trkpt>
      <trkpt lat="26.529153" lon="-78.62033">
        <ele>4.82302</ele>
        <time>2024-11-02T08:53:42.000Z</time>
      </trkpt>
      <trkpt lat="26.528283" lon="-78.62152">
        <ele>4.682278</ele>
        <time>2024-11-02T08:53:57.000Z</time>
      </trkpt>
      <trkpt lat="26.52766" lon="-78.62231">
        <ele>4.421997</ele>
        <time>2024-11-02T08:54:07.000Z</time>
      </trkpt>
      <trkpt lat="26.527028" lon="-78.623167">
        <ele>4.15924</ele>
        <time>2024-11-02T08:54:18.000Z</time>
      </trkpt>
      <trkpt lat="26.526274" lon="-78.624208">
        <ele>3.98088</ele>
        <time>2024-11-02T08:54:31.000Z</time>
      </trkpt>
      <trkpt lat="26.525281" lon="-78.625521">
        <ele>4.230566</ele>
        <time>2024-11-02T08:54:48.000Z</time>
      </trkpt>
      <trkpt lat="26.524796" lon="-78.626101">
        <ele>4.417074</ele>
        <time>2024-11-02T08:54:56.000Z</time>
      </trkpt>
      <trkpt lat="26.524728" lon="-78.62617">
        <ele>4.444433</ele>
        <time>2024-11-02T08:54:57.000Z</time>
      </trkpt>
      <trkpt lat="26.524632" lon="-78.626271">
        <ele>4.48061</ele>
        <time>2024-11-02T08:54:58.000Z</time>
      </trkpt>
      <trkpt lat="26.524346" lon="-78.626567">
        <ele>4.583011</ele>
        <time>2024-11-02T08:55:02.000Z</time>
      </trkpt>
      <trkpt lat="26.52401" lon="-78.626825">
        <ele>4.690821</ele>
        <time>2024-11-02T08:55:07.000Z</time>
      </trkpt>
      <trkpt lat="26.52355" lon="-78.62715">
        <ele>4.78624</ele>
        <time>2024-11-02T08:55:13.000Z</time>
      </trkpt>
      <trkpt lat="26.523257" lon="-78.627372">
        <ele>4.850386</ele>
        <time>2024-11-02T08:55:17.000Z</time>
      </trkpt>
      <trkpt lat="26.522887" lon="-78.627645">
        <ele>4.928709</ele>
        <time>2024-11-02T08:55:22.000Z</time>
      </trkpt>
      <trkpt lat="26.522507" lon="-78.627865">
        <ele>5.002391</ele>
        <time>2024-11-02T08:55:27.000Z</time>
      </trkpt>
      <trkpt lat="26.522194" lon="-78.628186">
        <ele>4.982407</ele>
        <time>2024-11-02T08:55:32.000Z</time>
      </trkpt>
      <trkpt lat="26.522101" lon="-78.628312">
        <ele>4.972531</ele>
        <time>2024-11-02T08:55:34.000Z</time>
      </trkpt>
      <trkpt lat="26.522053" lon="-78.628277">
        <ele>4.96853</ele>
        <time>2024-11-02T08:55:35.000Z</time>
      </trkpt>
      <trkpt lat="26.52173" lon="-78.627967">
        <ele>4.941164</ele>
        <time>2024-11-02T08:55:40.000Z</time>
      </trkpt>
      <trkpt lat="26.521467" lon="-78.627647">
        <ele>4.915049</ele>
        <time>2024-11-02T08:55:44.000Z</time>
      </trkpt>
      <trkpt lat="26.521309" lon="-78.627341">
        <ele>4.893968</ele>
        <time>2024-11-02T08:55:48.000Z</time>
      </trkpt>
      <trkpt lat="26.521176" lon="-78.627068">
        <ele>4.85795</ele>
        <time>2024-11-02T08:55:51.000Z</time>
      </trkpt>
      <trkpt lat="26.520979" lon="-78.626531">
        <ele>4.777509</ele>
        <time>2024-11-02T08:55:57.000Z</time>
      </trkpt>
      <trkpt lat="26.520789" lon="-78.626065">
        <ele>4.707749</ele>
        <time>2024-11-02T08:56:02.000Z</time>
      </trkpt>
      <trkpt lat="26.520516" lon="-78.625422">
        <ele>4.638948</ele>
        <time>2024-11-02T08:56:09.000Z</time>
      </trkpt>
      <trkpt lat="26.520299" lon="-78.624824">
        <ele>5.115022</ele>
        <time>2024-11-02T08:56:15.000Z</time>
      </trkpt>
      <trkpt lat="26.519979" lon="-78.623939">
        <ele>5.811066</ele>
        <time>2024-11-02T08:56:24.000Z</time>
      </trkpt>
      <trkpt lat="26.519926" lon="-78.623656">
        <ele>6.024743</ele>
        <time>2024-11-02T08:56:27.000Z</time>
      </trkpt>
      <trkpt lat="26.51994" lon="-78.623489">
        <ele>6.116632</ele>
        <time>2024-11-02T08:56:29.000Z</time>
      </trkpt>
      <trkpt lat="26.520004" lon="-78.623257">
        <ele>6.196155</ele>
        <time>2024-11-02T08:56:31.000Z</time>
      </trkpt>
      <trkpt lat="26.52017" lon="-78.622936">
        <ele>6.330365</ele>
        <time>2024-11-02T08:56:35.000Z</time>
      </trkpt>
      <trkpt lat="26.520182" lon="-78.622898">
        <ele>6.345264</ele>
        <time>2024-11-02T08:56:35.000Z</time>
      </trkpt>
      <trkpt lat="26.520542" lon="-78.622143">
        <ele>6.637996</ele>
        <time>2024-11-02T08:56:44.000Z</time>
      </trkpt>
      <trkpt lat="26.520608" lon="-78.621997">
        <ele>6.694633</ele>
        <time>2024-11-02T08:56:46.000Z</time>
      </trkpt>
      <trkpt lat="26.52085" lon="-78.621514">
        <ele>6.580289</ele>
        <time>2024-11-02T08:56:52.000Z</time>
      </trkpt>
      <trkpt lat="26.52115" lon="-78.621024">
        <ele>6.170554</ele>
        <time>2024-11-02T08:56:58.000Z</time>
      </trkpt>
      <trkpt lat="26.521549" lon="-78.620465">
        <ele>5.666572</ele>
        <time>2024-11-02T08:57:05.000Z</time>
      </trkpt>
      <trkpt lat="26.521729" lon="-78.62023">
        <ele>5.469207</ele>
        <time>2024-11-02T08:57:08.000Z</time>
      </trkpt>
      <trkpt lat="26.521618" lon="-78.620153">
        <ele>5.34549337826</ele>
        <time>2024-11-02T08:57:09.000Z</time>
      </trkpt>
      <trkpt lat="26.521373" lon="-78.619872">
        <ele>5.01305749705</ele>
        <time>2024-11-02T08:57:13.000Z</time>
      </trkpt>
      <trkpt lat="26.520826" lon="-78.619377">
        <ele>4.3465610968</ele>
        <time>2024-11-02T08:57:21.000Z</time>
      </trkpt>
      <trkpt lat="26.520796" lon="-78.619348">
        <ele>4.30900008268</ele>
        <time>2024-11-02T08:57:21.000Z</time>
      </trkpt>
    </trkseg>
  </trk>
</gpx>

<!--
Performance optimized by W3 Total Cache. Learn more: https://www.boldgrid.com/w3-total-cache/?utm_source=w3tc&utm_medium=footer_comment&utm_campaign=free_plugin

Page Caching using Disk: Enhanced{w3tc_pagecache_reject_reason} 

Served from: www.aquabike.world @ 2026-05-10 20:04:29 by W3 Total Cache
-->